• pl
  • eng

Awiacja
NEWS
last updated: 12.09.2019 14:49<\/div>
Dear users,
We would like to inform you that from September 2nd a test form of the GAFOR forecast is available on our webpage. Please send your comments and suggestions to gafor@imgw.pl that will contribute to product development.
TAF FT 06:30 22.01.2020
  • WIND
  • SIGNIFICANT EURO
  • SIGNIFICANT
  • SIGMET
  • AIRMET
  • TAF FC
  • TAF FT
  • METAR GG30
  • METAR GG00


TAF EPBY 220530Z 2206/2306 27016KT 8000 OVC007
PROB30 TEMPO 2206/2210 28018G30KT 4000 -DZRA BR BKN004
BECMG 2209/2211 33010KT BKN008 OVC014
BECMG 2212/2214 SCT030
PROB40 2218/2306 3000 BR BKN004 OVC010=

TAF EPGD 220530Z 2206/2306 29016KT 9999 BKN014
PROB40 TEMPO 2206/2209 30022G37KT BKN009
BECMG 2206/2209 BKN035
PROB40 TEMPO 2207/2212 -SHRASN BKN020TCU
TEMPO 2209/2213 32020G31KT
BECMG 2221/2224 27006KT=

TAF EPKK 220530Z 2206/2306 25008KT CAVOK
BECMG 2209/2211 25015G27KT BKN013
TEMPO 2211/2217 4500 -SNRA BR BKN005
BECMG 2218/2221 25010KT SCT030=

TAF EPKT 220530Z 2206/2306 23010KT CAVOK
BECMG 2207/2209 27015G27KT BKN011
TEMPO 2209/2211 -FZRA BKN007
TEMPO 2211/2218 4500 SNRA SN BKN004
BECMG 2218/2221 29011KT BKN030=

TAF EPLL 220530Z 2206/2306 27012KT 9999 BKN007
PROB30 TEMPO 2206/2208 -FZDZ
PROB40 TEMPO 2206/2212 4000 -RASN BR BKN004
TEMPO 2206/2215 28017G30KT
BECMG 2214/2216 33010KT BKN020
PROB40 2221/2306 4000 BR BKN006=

TAF EPMO 220530Z 2206/2306 26014KT 9999 BKN006
TEMPO 2206/2208 27017G27KT 4000 -RA BR BKN004
TEMPO 2208/2214 27020G30KT BKN012
BECMG 2211/2214 32010KT SCT030
PROB40 TEMPO 2212/2218 -SHRA BKN025CB=

TAF EPPO 220530Z 2206/2306 27010KT 6000 OVC005
TEMPO 2206/2213 28015G25KT 2000 -RA BR BKN002
BECMG 2213/2215 9999 BKN020=

TAF EPRZ 220530Z 2206/2306 22012KT CAVOK
BECMG 2207/2209 27017G28KT BKN014
TEMPO 2209/2211 4500 -SN BR BKN008
TEMPO 2211/2220 4000 SNRA -SN BKN006
BECMG 2220/2222 27012KT=

TAF EPSC 220530Z 2206/2306 28010KT 9999 BKN005 OVC012
PROB40 TEMPO 2206/2208 29015G28KT BKN003 OVC005
BECMG 2207/2210 34012KT SCT035
PROB40 TEMPO 2208/2213 34017G29KT SCT012 BKN020TCU
BECMG 2216/2218 28007KT BKN010
PROB40 2218/2306 2000 BR BKN003 OVC006=

TAF EPWA 220530Z 2206/2306 26013KT 9999 BKN007
TEMPO 2206/2208 27015G25KT 4000 -RA BR BKN004
TEMPO 2208/2214 28018G30KT BKN012
BECMG 2212/2214 32010KT SCT030
PROB40 TEMPO 2212/2218 -SHRA BKN025CB=

TAF EPWR 220530Z 2206/2306 27010KT CAVOK
BECMG 2206/2209 BKN012
TEMPO 2207/2220 29015G25KT 4000 -RA BR BKN005
BECMG 2220/2222 SCT020=
Awiacja.imgw.pl jest pogodowym serwisem informacyjnym
Instytutu Meteorologii i Gospodarki Wodnej Państwowego Instytutu Badawczego.
Copyright IMGW PIB 2009-2019© Wszelkie prawa zastrzeżone.